createdAt,value
2018-12-19T10:15:38.200Z,100978.69
2018-12-19T10:20:53.299Z,100978.01
2018-12-19T10:26:08.238Z,100982.92
2018-12-19T10:37:08.848Z,100972.49
2018-12-19T10:42:19.305Z,100964.39
2018-12-19T10:47:37.764Z,100951.89
2018-12-19T10:52:50.592Z,100948.89
2018-12-19T10:58:04.776Z,100956.50
2018-12-19T11:03:43.552Z,100959.88
2018-12-19T11:09:13.981Z,100961.38
2018-12-19T11:14:18.142Z,100973.62
2018-12-19T11:25:05.767Z,100967.92
2018-12-19T11:30:14.857Z,100974.70
2018-12-19T11:35:44.360Z,100960.38
2018-12-19T11:41:09.281Z,100961.31
2018-12-19T11:57:22.961Z,100947.59
2018-12-19T12:02:34.600Z,100933.88
2018-12-19T12:07:57.791Z,100931.45
2018-12-19T12:13:24.144Z,100925.88
2018-12-19T12:18:38.004Z,100924.77
2018-12-19T12:24:10.381Z,100920.53
2018-12-19T12:29:35.941Z,100914.58
2018-12-19T12:35:01.671Z,100905.05
2018-12-19T12:40:26.981Z,100911.63
2018-12-19T12:45:49.118Z,100914.02
2018-12-19T12:51:17.158Z,100901.25
2018-12-19T12:56:43.147Z,100900.16
2018-12-19T13:01:58.228Z,100907.73
2018-12-19T13:07:17.250Z,100901.96
2018-12-19T13:12:44.742Z,100901.12
2018-12-19T13:23:30.536Z,100897.77
2018-12-19T13:29:07.450Z,100899.77
2018-12-19T13:34:25.452Z,100892.30
2018-12-19T13:45:14.622Z,100885.50
2018-12-19T13:50:26.737Z,100881.11
2018-12-19T13:56:00.309Z,100882.56
2018-12-19T14:01:30.736Z,100882.69
2018-12-19T14:06:50.732Z,100873.52
2018-12-19T14:12:01.367Z,100868.63
2018-12-19T14:23:02.080Z,100857.58
2018-12-19T14:28:13.279Z,100874.34
2018-12-19T14:33:29.221Z,100869.10
2018-12-19T14:38:47.135Z,100874.77
2018-12-19T14:44:22.973Z,100869.27
2018-12-19T14:49:57.612Z,100869.25
2018-12-19T14:55:13.483Z,100865.82
2018-12-19T15:00:37.726Z,100861.97
2018-12-19T15:06:08.816Z,100854.32
2018-12-19T15:11:22.196Z,100846.47
2018-12-19T15:22:14.143Z,100842.47
2018-12-19T15:27:36.939Z,100830.16
2018-12-19T15:32:59.700Z,100822.16
2018-12-19T15:38:33.231Z,100821.84
2018-12-19T15:43:47.086Z,100832.89
2018-12-19T15:49:02.502Z,100840.12
2018-12-19T15:59:40.923Z,100867.36
2018-12-19T16:05:08.062Z,100892.09
2018-12-19T16:10:14.805Z,100886.84
2018-12-19T16:15:50.907Z,100885.95
2018-12-19T16:21:55.851Z,100882.58
2018-12-19T16:32:43.091Z,100890.94
2018-12-19T16:43:11.769Z,100879.97
2018-12-19T16:53:42.188Z,100876.61
2018-12-19T16:58:52.431Z,100879.42
2018-12-19T17:04:06.025Z,100873.98
2018-12-19T17:09:27.527Z,100878.66
2018-12-19T17:14:40.945Z,100874.78
2018-12-19T17:19:55.374Z,100871.66
2018-12-19T17:40:53.690Z,100871.28
2018-12-19T17:51:24.381Z,100863.20
2018-12-19T17:56:34.765Z,100862.66
2018-12-19T18:06:53.516Z,100887.95
2018-12-19T18:17:32.255Z,100890.84
2018-12-19T18:22:42.207Z,100895.74
2018-12-19T18:27:55.561Z,100888.09
2018-12-19T18:38:25.794Z,100890.97
2018-12-19T18:54:10.764Z,100884.05
2018-12-19T18:59:29.467Z,100886.08
2018-12-19T19:04:39.040Z,100879.84
2018-12-19T19:30:55.685Z,100872.91
2018-12-19T19:36:21.438Z,100871.64
2018-12-19T19:52:11.261Z,100859.59
2018-12-19T20:29:00.165Z,100878.41
2018-12-19T21:11:37.312Z,100875.14
2018-12-19T21:16:51.921Z,100871.28
2018-12-19T21:53:35.131Z,100871.36
2018-12-19T22:25:08.443Z,100881.95
